createdAt,value
2019-03-04T00:00:32.803Z,0
2019-03-04T00:01:42.733Z,0
2019-03-04T00:02:52.663Z,0
2019-03-04T00:04:02.584Z,0
2019-03-04T00:05:12.607Z,0
2019-03-04T00:06:22.524Z,0
2019-03-04T00:07:32.449Z,0
2019-03-04T00:08:42.589Z,0
2019-03-04T00:09:52.508Z,0
2019-03-04T00:11:02.271Z,0
2019-03-04T00:12:12.219Z,0
2019-03-04T00:13:22.152Z,0
2019-03-04T00:14:32.072Z,0
2019-03-04T00:15:41.992Z,0
2019-03-04T00:16:51.961Z,0
2019-03-04T00:18:01.877Z,0
2019-03-04T00:19:11.797Z,0
2019-03-04T00:20:21.721Z,0
2019-03-04T00:21:31.651Z,0
2019-03-04T00:22:41.675Z,0
2019-03-04T00:23:51.593Z,0
2019-03-04T00:25:01.634Z,0
2019-03-04T00:26:11.327Z,0
2019-03-04T00:27:21.245Z,0
2019-03-04T00:28:31.274Z,0
2019-03-04T00:29:41.191Z,0
2019-03-04T00:30:51.117Z,0
2019-03-04T00:32:01.033Z,0
2019-03-04T00:33:10.708Z,0
2019-03-04T00:34:20.620Z,0
2019-03-04T00:35:30.536Z,0
2019-03-04T00:36:40.454Z,0
2019-03-04T00:37:50.379Z,0
2019-03-04T00:39:00.309Z,0
2019-03-04T00:40:10.328Z,0
2019-03-04T00:41:20.248Z,0
2019-03-04T00:42:29.923Z,0
2019-03-04T00:43:39.849Z,0
2019-03-04T00:44:49.763Z,0
2019-03-04T00:45:59.538Z,0
2019-03-04T00:47:09.465Z,0
2019-03-04T00:48:19.393Z,0
2019-03-04T00:49:29.313Z,0
2019-03-04T00:50:39.233Z,0
2019-03-04T00:51:49.215Z,0
2019-03-04T00:52:59.130Z,0
2019-03-04T00:54:09.053Z,0
2019-03-04T00:55:18.973Z,0
2019-03-04T00:56:28.894Z,0
2019-03-04T00:57:38.858Z,0
2019-03-04T00:58:48.530Z,0
2019-03-04T00:59:58.458Z,0
2019-03-04T01:01:08.124Z,0
2019-03-04T01:02:18.045Z,0
2019-03-04T01:03:28.143Z,0
2019-03-04T01:04:38.077Z,0
2019-03-04T01:05:47.995Z,0
2019-03-04T01:06:57.910Z,0
2019-03-04T01:08:07.835Z,0
2019-03-04T01:09:17.498Z,0
2019-03-04T01:10:27.425Z,0
2019-03-04T01:11:37.344Z,0
2019-03-04T01:12:47.269Z,0
2019-03-04T01:13:57.185Z,0
2019-03-04T01:15:07.157Z,0
2019-03-04T01:16:17.096Z,0
2019-03-04T01:17:27.018Z,0
2019-03-04T01:18:36.940Z,0
2019-03-04T01:19:46.862Z,0
2019-03-04T01:20:56.892Z,0
2019-03-04T01:22:06.811Z,0
2019-03-04T01:23:16.731Z,0
2019-03-04T01:24:26.649Z,0
2019-03-04T01:25:36.570Z,0
2019-03-04T01:26:46.624Z,0
2019-03-04T01:27:56.546Z,0
2019-03-04T01:29:06.472Z,0
2019-03-04T01:30:16.402Z,0
2019-03-04T01:31:26.320Z,0
2019-03-04T01:32:36.341Z,0
2019-03-04T01:33:46.263Z,0
2019-03-04T01:34:56.178Z,0
2019-03-04T01:36:06.163Z,0
2019-03-04T01:37:16.083Z,0
2019-03-04T01:38:26.100Z,0
2019-03-04T01:39:36.026Z,0
2019-03-04T01:40:45.939Z,0
2019-03-04T01:41:55.615Z,0
2019-03-04T01:43:05.565Z,0
2019-03-04T01:44:15.581Z,0
2019-03-04T01:45:25.518Z,0
2019-03-04T01:46:35.446Z,0
2019-03-04T01:47:45.411Z,0
2019-03-04T01:48:55.390Z,0
2019-03-04T01:50:05.407Z,0
2019-03-04T01:51:15.321Z,0
2019-03-04T01:52:25.238Z,0
2019-03-04T01:53:35.165Z,0
2019-03-04T01:54:45.081Z,0
2019-03-04T01:55:55.050Z,0
2019-03-04T01:57:04.968Z,0
2019-03-04T01:58:14.894Z,0
2019-03-04T01:59:24.823Z,0
2019-03-04T02:00:34.745Z,0
2019-03-04T02:01:44.763Z,0
2019-03-04T02:02:54.687Z,0
2019-03-04T02:04:04.600Z,0
2019-03-04T02:05:14.513Z,0
2019-03-04T02:06:24.432Z,0
2019-03-04T02:07:34.457Z,0
2019-03-04T02:08:44.379Z,0
2019-03-04T02:09:54.322Z,0
2019-03-04T02:11:04.249Z,0
2019-03-04T02:12:14.164Z,0
2019-03-04T02:13:24.235Z,0
2019-03-04T02:14:34.152Z,0
2019-03-04T02:15:44.074Z,0
2019-03-04T02:16:54.006Z,0
2019-03-04T02:18:03.928Z,0
2019-03-04T02:19:14.021Z,0
2019-03-04T02:20:23.955Z,0
2019-03-04T02:21:33.875Z,0
2019-03-04T02:22:43.545Z,0
2019-03-04T02:23:53.461Z,0
2019-03-04T02:25:03.529Z,0
2019-03-04T02:26:13.199Z,0
2019-03-04T02:27:23.116Z,0
2019-03-04T02:28:33.041Z,0
2019-03-04T02:29:42.990Z,0
2019-03-04T02:30:52.893Z,0
2019-03-04T02:32:02.605Z,0
2019-03-04T02:33:12.300Z,0
2019-03-04T02:34:21.990Z,0
2019-03-04T02:35:31.938Z,0
2019-03-04T02:36:41.946Z,0
2019-03-04T02:37:51.638Z,0
2019-03-04T02:39:01.574Z,0
2019-03-04T02:40:11.540Z,0
2019-03-04T02:41:21.475Z,0
2019-03-04T02:42:31.499Z,0
2019-03-04T02:43:41.468Z,0
2019-03-04T02:44:51.409Z,0
2019-03-04T02:46:01.343Z,0
2019-03-04T02:47:11.300Z,0
2019-03-04T02:48:21.244Z,0
2019-03-04T02:49:31.181Z,0
2019-03-04T02:50:41.126Z,0
2019-03-04T02:51:51.064Z,0
2019-03-04T02:53:01.030Z,0
2019-03-04T02:54:11.018Z,0
2019-03-04T02:55:20.969Z,0
2019-03-04T02:56:30.906Z,0
2019-03-04T02:57:40.848Z,0
2019-03-04T02:58:50.848Z,0
2019-03-04T03:00:00.801Z,0
2019-03-04T03:01:10.858Z,0
2019-03-04T03:02:20.792Z,0
2019-03-04T03:03:30.730Z,0
2019-03-04T03:04:40.707Z,0
2019-03-04T03:05:50.386Z,0
2019-03-04T03:07:00.323Z,0
2019-03-04T03:08:10.298Z,0
2019-03-04T03:09:20.240Z,0
2019-03-04T03:10:30.184Z,0
2019-03-04T03:11:40.242Z,0
2019-03-04T03:12:50.231Z,0
2019-03-04T03:14:00.150Z,0
2019-03-04T03:15:10.283Z,0
2019-03-04T03:16:20.238Z,0
2019-03-04T03:17:30.225Z,0
2019-03-04T03:18:40.156Z,0
2019-03-04T03:19:50.101Z,0
2019-03-04T03:20:59.790Z,0
2019-03-04T03:22:09.727Z,0
2019-03-04T03:23:19.726Z,0
2019-03-04T03:24:29.681Z,0
2019-03-04T03:25:39.664Z,0
2019-03-04T03:26:49.587Z,0
2019-03-04T03:27:59.521Z,0
2019-03-04T03:29:09.544Z,0
2019-03-04T03:30:19.552Z,0
2019-03-04T03:31:29.591Z,0
2019-03-04T03:32:39.622Z,0
2019-03-04T03:33:49.639Z,0
2019-03-04T03:34:59.840Z,0
2019-03-04T03:36:09.781Z,0
2019-03-04T03:37:19.727Z,0
2019-03-04T03:38:29.665Z,0
2019-03-04T03:39:39.116Z,0
2019-03-04T03:40:49.191Z,0
2019-03-04T03:41:59.144Z,0
2019-03-04T03:43:08.844Z,0
2019-03-04T03:44:18.517Z,0
2019-03-04T03:45:28.455Z,0
2019-03-04T03:46:38.482Z,0
2019-03-04T03:47:48.469Z,0
2019-03-04T03:48:58.422Z,0
2019-03-04T03:50:08.362Z,0
2019-03-04T03:51:18.328Z,0
2019-03-04T03:52:28.255Z,0
2019-03-04T03:53:38.200Z,0
2019-03-04T03:54:48.137Z,0
2019-03-04T03:55:57.814Z,0
2019-03-04T03:57:07.762Z,0
2019-03-04T03:58:17.689Z,0
2019-03-04T03:59:27.654Z,0
2019-03-04T04:00:37.588Z,0
2019-03-04T04:01:47.549Z,0
2019-03-04T04:02:57.495Z,0
2019-03-04T04:04:07.551Z,0
2019-03-04T04:05:17.515Z,0
2019-03-04T04:06:27.442Z,0
2019-03-04T04:07:37.387Z,0
2019-03-04T04:08:47.318Z,0
2019-03-04T04:09:57.363Z,0
2019-03-04T04:11:07.304Z,0
2019-03-04T04:12:17.228Z,0
2019-03-04T04:13:27.149Z,0
2019-03-04T04:14:38.970Z,0
2019-03-04T04:15:49.015Z,0
2019-03-04T04:16:58.943Z,0
2019-03-04T04:18:08.883Z,0
2019-03-04T04:19:18.809Z,0
2019-03-04T04:20:28.883Z,0
2019-03-04T04:21:38.926Z,0
2019-03-04T04:22:48.862Z,0
2019-03-04T04:23:58.789Z,0
2019-03-04T04:25:08.721Z,0
2019-03-04T04:26:18.645Z,0
2019-03-04T04:27:28.681Z,0
2019-03-04T04:28:38.618Z,0
2019-03-04T04:29:48.551Z,0
2019-03-04T04:30:58.483Z,0
2019-03-04T04:32:08.446Z,0
2019-03-04T04:33:18.419Z,0
2019-03-04T04:34:28.464Z,0
2019-03-04T04:35:38.392Z,0
2019-03-04T04:36:48.315Z,0
2019-03-04T04:37:58.020Z,0
2019-03-04T04:39:08.826Z,0
2019-03-04T04:40:18.759Z,0
2019-03-04T04:41:28.678Z,0
2019-03-04T04:42:38.594Z,0
2019-03-04T04:43:48.510Z,0
2019-03-04T04:44:58.541Z,0
2019-03-04T04:46:08.462Z,0
2019-03-04T04:47:18.383Z,0
2019-03-04T04:48:28.303Z,0
2019-03-04T04:49:38.293Z,0
2019-03-04T04:50:48.271Z,0
2019-03-04T04:51:57.938Z,0
2019-03-04T04:53:07.858Z,0
2019-03-04T04:54:17.778Z,0
2019-03-04T04:55:27.451Z,0
2019-03-04T04:56:37.431Z,0
2019-03-04T04:57:47.358Z,0
2019-03-04T04:58:57.277Z,0
2019-03-04T05:00:07.419Z,0
2019-03-04T05:01:17.339Z,0
2019-03-04T05:02:27.358Z,0
2019-03-04T05:03:37.276Z,0
2019-03-04T05:04:47.194Z,0
2019-03-04T05:05:57.112Z,0
2019-03-04T05:07:07.029Z,0
2019-03-04T05:08:17.009Z,0
2019-03-04T05:09:26.929Z,0
2019-03-04T05:10:36.855Z,0
2019-03-04T05:11:46.782Z,0
2019-03-04T05:12:56.702Z,0
2019-03-04T05:14:06.632Z,0
2019-03-04T05:15:16.569Z,0
2019-03-04T05:16:26.490Z,0
2019-03-04T05:17:36.408Z,0
2019-03-04T05:18:46.365Z,0
2019-03-04T05:19:56.386Z,0
2019-03-04T05:21:06.304Z,0
2019-03-04T05:22:16.233Z,0
2019-03-04T05:23:26.158Z,0
2019-03-04T05:24:36.907Z,0
2019-03-04T05:25:46.928Z,0
2019-03-04T05:26:56.848Z,0
2019-03-04T05:28:06.770Z,0
2019-03-04T05:29:16.706Z,0
2019-03-04T05:30:26.642Z,0
2019-03-04T05:31:36.622Z,0
2019-03-04T05:32:46.551Z,0
2019-03-04T05:33:56.218Z,0
2019-03-04T05:35:06.143Z,0
2019-03-04T05:36:16.061Z,0
2019-03-04T05:37:26.049Z,0
2019-03-04T05:38:35.970Z,0
2019-03-04T05:39:45.891Z,0
2019-03-04T05:40:55.813Z,0
2019-03-04T05:42:05.746Z,0
2019-03-04T05:43:15.671Z,0
2019-03-04T05:44:25.613Z,0
2019-03-04T05:45:35.541Z,0
2019-03-04T05:46:45.460Z,0
2019-03-04T05:47:55.402Z,0
2019-03-04T05:49:05.423Z,0
2019-03-04T05:50:15.350Z,0
2019-03-04T05:51:25.021Z,0
2019-03-04T05:52:34.952Z,0
2019-03-04T05:53:44.876Z,0
2019-03-04T05:54:54.856Z,0
2019-03-04T05:56:04.780Z,0
2019-03-04T05:57:14.722Z,0
2019-03-04T05:58:24.669Z,0
2019-03-04T05:59:34.593Z,0
2019-03-04T06:00:44.614Z,0
2019-03-04T06:01:54.538Z,0
2019-03-04T06:03:04.456Z,0
2019-03-04T06:04:14.373Z,5
2019-03-04T06:05:24.314Z,5
2019-03-04T06:06:34.287Z,5
2019-03-04T06:07:44.215Z,5
2019-03-04T06:08:54.135Z,5
2019-03-04T06:10:04.146Z,5
2019-03-04T06:11:14.125Z,5
2019-03-04T06:12:24.139Z,5
2019-03-04T06:13:34.060Z,5
2019-03-04T06:14:43.982Z,10
2019-03-04T06:15:53.902Z,10
2019-03-04T06:17:03.822Z,10
2019-03-04T06:18:13.748Z,10
2019-03-04T06:19:23.669Z,10
2019-03-04T06:20:33.587Z,15
2019-03-04T06:21:43.533Z,15
2019-03-04T06:22:53.478Z,15
2019-03-04T06:24:03.457Z,15
2019-03-04T06:25:14.732Z,20
2019-03-04T06:26:24.669Z,20
2019-03-04T06:27:34.597Z,20
2019-03-04T06:28:44.513Z,20
2019-03-04T06:29:54.521Z,20
2019-03-04T06:31:04.437Z,25
2019-03-04T06:32:14.362Z,25
2019-03-04T06:33:24.286Z,25
2019-03-04T06:34:34.260Z,25
2019-03-04T06:35:44.281Z,30
2019-03-04T06:36:55.557Z,30
2019-03-04T06:38:05.228Z,30
2019-03-04T06:39:15.150Z,35
2019-03-04T06:40:25.076Z,35
2019-03-04T06:41:35.019Z,40
2019-03-04T06:42:44.942Z,40
2019-03-04T06:43:54.872Z,40
2019-03-04T06:45:04.838Z,45
2019-03-04T06:46:14.764Z,50
2019-03-04T06:47:24.783Z,50
2019-03-04T06:48:34.712Z,55
2019-03-04T06:49:44.627Z,55
2019-03-04T06:50:54.555Z,55
2019-03-04T06:52:04.489Z,60
2019-03-04T06:53:14.457Z,60
2019-03-04T06:54:24.387Z,65
2019-03-04T06:55:34.309Z,65
2019-03-04T06:56:44.229Z,65
2019-03-04T06:57:54.154Z,70
2019-03-04T06:59:04.186Z,70
2019-03-04T07:00:14.124Z,70
2019-03-04T07:01:24.044Z,70
2019-03-04T07:02:34.158Z,70
2019-03-04T07:03:44.089Z,75
2019-03-04T07:04:54.064Z,75
2019-03-04T07:06:03.984Z,75
2019-03-04T07:07:13.949Z,80
2019-03-04T07:08:23.888Z,80
2019-03-04T07:09:33.823Z,85
2019-03-04T07:10:43.539Z,85
2019-03-04T07:11:53.472Z,85
2019-03-04T07:13:03.411Z,85
2019-03-04T07:14:13.350Z,85
2019-03-04T07:15:23.278Z,80
2019-03-04T07:16:34.646Z,80
2019-03-04T07:17:44.586Z,80
2019-03-04T07:18:54.511Z,85
2019-03-04T07:20:04.451Z,85
2019-03-04T07:21:14.381Z,85
2019-03-04T07:22:24.165Z,85
2019-03-04T07:23:34.095Z,90
2019-03-04T07:24:44.018Z,90
2019-03-04T07:25:53.940Z,95
2019-03-04T07:27:03.869Z,95
2019-03-04T07:28:13.554Z,95
2019-03-04T07:29:24.727Z,100
2019-03-04T07:30:34.392Z,100
2019-03-04T07:31:44.308Z,100
2019-03-04T07:32:54.235Z,100
2019-03-04T07:34:04.323Z,100
2019-03-04T07:35:14.246Z,100
2019-03-04T07:36:23.915Z,100
2019-03-04T07:37:33.846Z,105
2019-03-04T07:38:43.770Z,105
2019-03-04T07:39:53.854Z,115
2019-03-04T07:41:03.779Z,110
2019-03-04T07:42:13.718Z,110
2019-03-04T07:43:23.638Z,110
2019-03-04T07:44:33.576Z,110
2019-03-04T07:45:43.598Z,110
2019-03-04T07:46:53.517Z,120
2019-03-04T07:48:05.060Z,120
2019-03-04T07:49:14.986Z,120
2019-03-04T07:50:24.911Z,125
2019-03-04T07:51:34.930Z,130
2019-03-04T07:52:44.852Z,130
2019-03-04T07:53:56.196Z,130
2019-03-04T07:55:06.115Z,135
2019-03-04T07:56:16.046Z,135
2019-03-04T07:57:26.108Z,140
2019-03-04T07:58:36.050Z,145
2019-03-04T07:59:45.971Z,150
2019-03-04T08:00:55.912Z,155
2019-03-04T08:02:05.843Z,155
2019-03-04T08:03:15.866Z,155
2019-03-04T08:04:25.546Z,155
2019-03-04T08:05:35.478Z,160
2019-03-04T08:06:45.416Z,160
2019-03-04T08:07:55.347Z,160
2019-03-04T08:09:05.420Z,160
2019-03-04T08:10:15.368Z,165
2019-03-04T08:11:25.291Z,170
2019-03-04T08:12:35.215Z,170
2019-03-04T08:13:45.153Z,175
2019-03-04T08:14:55.090Z,175
2019-03-04T08:16:04.772Z,175
2019-03-04T08:17:14.696Z,180
2019-03-04T08:18:24.623Z,180
2019-03-04T08:19:34.562Z,180
2019-03-04T08:20:44.636Z,185
2019-03-04T08:21:54.557Z,190
2019-03-04T08:23:04.481Z,190
2019-03-04T08:24:14.409Z,195
2019-03-04T08:25:24.341Z,195
2019-03-04T08:26:34.418Z,200
2019-03-04T08:27:44.344Z,205
2019-03-04T08:28:54.284Z,210
2019-03-04T08:30:03.784Z,210
2019-03-04T08:31:13.542Z,215
2019-03-04T08:32:23.464Z,215
2019-03-04T08:33:33.385Z,220
2019-03-04T08:34:43.300Z,215
2019-03-04T08:35:53.229Z,225
2019-03-04T08:37:03.145Z,225
2019-03-04T08:38:13.174Z,225
2019-03-04T08:39:25.341Z,225
2019-03-04T08:40:35.272Z,230
2019-03-04T08:41:45.208Z,235
2019-03-04T08:42:54.885Z,240
2019-03-04T08:44:04.907Z,240
2019-03-04T08:45:14.824Z,240
2019-03-04T08:46:24.746Z,245
2019-03-04T08:47:34.670Z,240
2019-03-04T08:48:44.597Z,245
2019-03-04T08:49:54.522Z,250
2019-03-04T08:51:04.853Z,250
2019-03-04T08:52:14.787Z,255
2019-03-04T08:53:24.476Z,255
2019-03-04T08:54:34.412Z,255
2019-03-04T08:55:45.350Z,260
2019-03-04T08:57:03.559Z,260
2019-03-04T08:58:13.815Z,260
2019-03-04T08:59:23.748Z,260
2019-03-04T09:00:33.669Z,260
2019-03-04T09:01:43.855Z,265
2019-03-04T09:02:53.778Z,270
2019-03-04T09:04:03.706Z,275
2019-03-04T09:05:13.628Z,285
2019-03-04T09:06:23.546Z,285
2019-03-04T09:07:33.520Z,295
2019-03-04T09:08:43.445Z,300
2019-03-04T09:09:53.377Z,300
2019-03-04T09:11:03.300Z,300
2019-03-04T09:12:13.223Z,310
2019-03-04T09:13:23.294Z,320
2019-03-04T09:14:33.255Z,315
2019-03-04T09:15:43.191Z,315
2019-03-04T09:16:53.113Z,315
2019-03-04T09:18:03.039Z,320
2019-03-04T09:19:13.115Z,315
2019-03-04T09:20:23.035Z,315
2019-03-04T09:21:32.963Z,320
2019-03-04T09:22:42.881Z,320
2019-03-04T09:23:54.850Z,320
2019-03-04T09:25:05.058Z,320
2019-03-04T09:26:14.735Z,320
2019-03-04T09:27:24.731Z,325
2019-03-04T09:28:34.661Z,325
2019-03-04T09:29:46.708Z,325
2019-03-04T09:30:56.833Z,325
2019-03-04T09:32:06.766Z,325
2019-03-04T09:33:16.704Z,325
2019-03-04T09:34:26.624Z,325
2019-03-04T09:35:37.477Z,325
2019-03-04T09:36:47.530Z,330
2019-03-04T09:37:57.454Z,325
2019-03-04T09:39:07.397Z,330
2019-03-04T09:40:17.071Z,330
2019-03-04T09:41:26.993Z,335
2019-03-04T09:42:37.027Z,335
2019-03-04T09:43:46.983Z,345
2019-03-04T09:44:56.913Z,340
2019-03-04T09:46:06.834Z,340
2019-03-04T09:47:16.755Z,345
2019-03-04T09:48:26.635Z,345
2019-03-04T09:49:36.556Z,345
2019-03-04T09:50:46.475Z,350
2019-03-04T09:51:56.406Z,350
2019-03-04T09:53:06.338Z,350
2019-03-04T09:54:16.418Z,355
2019-03-04T09:55:26.339Z,355
2019-03-04T09:56:36.272Z,355
2019-03-04T09:57:46.202Z,355
2019-03-04T09:58:56.141Z,360
2019-03-04T10:00:06.083Z,355
2019-03-04T10:01:16.068Z,365
2019-03-04T10:02:25.997Z,365
2019-03-04T10:03:35.923Z,360
2019-03-04T10:04:45.843Z,365
2019-03-04T10:05:55.766Z,365
2019-03-04T10:07:05.714Z,365
2019-03-04T10:08:15.633Z,375
2019-03-04T10:09:25.307Z,370
2019-03-04T10:10:35.233Z,375
2019-03-04T10:11:45.154Z,375
2019-03-04T10:12:54.824Z,370
2019-03-04T10:14:04.747Z,370
2019-03-04T10:15:20.337Z,380
2019-03-04T10:16:30.466Z,375
2019-03-04T10:17:40.496Z,380
2019-03-04T10:18:50.439Z,390
2019-03-04T10:20:00.359Z,390
2019-03-04T10:21:10.045Z,385
2019-03-04T10:22:19.972Z,385
2019-03-04T10:23:29.998Z,395
2019-03-04T10:24:39.925Z,390
2019-03-04T10:25:49.847Z,380
2019-03-04T10:26:59.768Z,390
2019-03-04T10:28:09.694Z,390
2019-03-04T10:29:19.462Z,380
2019-03-04T10:30:29.390Z,370
2019-03-04T10:31:39.310Z,365
2019-03-04T10:32:49.232Z,365
2019-03-04T10:33:59.157Z,365
2019-03-04T10:35:09.186Z,380
2019-03-04T10:36:19.105Z,375
2019-03-04T10:37:29.036Z,385
2019-03-04T10:38:38.721Z,395
2019-03-04T10:39:48.647Z,395
2019-03-04T10:41:00.448Z,400
2019-03-04T10:42:10.373Z,405
2019-03-04T10:43:20.301Z,405
2019-03-04T10:44:30.606Z,405
2019-03-04T10:45:43.052Z,405
2019-03-04T10:46:52.975Z,410
2019-03-04T10:48:02.896Z,415
2019-03-04T10:49:12.819Z,420
2019-03-04T10:50:22.742Z,420
2019-03-04T10:51:32.664Z,420
2019-03-04T10:52:42.695Z,425
2019-03-04T10:53:52.371Z,415
2019-03-04T10:55:02.345Z,415
2019-03-04T10:56:12.265Z,410
2019-03-04T10:57:22.190Z,405
2019-03-04T10:58:32.124Z,405
2019-03-04T10:59:42.054Z,395
2019-03-04T11:00:51.983Z,400
2019-03-04T11:02:01.908Z,395
2019-03-04T11:03:11.832Z,395
2019-03-04T11:04:21.883Z,395
2019-03-04T11:05:31.834Z,390
2019-03-04T11:06:41.763Z,385
2019-03-04T11:07:51.686Z,385
2019-03-04T11:09:01.618Z,385
2019-03-04T11:10:11.554Z,390
2019-03-04T11:11:29.408Z,385
2019-03-04T11:12:39.897Z,395
2019-03-04T11:13:49.843Z,395
2019-03-04T11:14:59.769Z,400
2019-03-04T11:16:09.804Z,405
2019-03-04T11:17:19.725Z,415
2019-03-04T11:18:29.652Z,415
2019-03-04T11:19:39.584Z,420
2019-03-04T11:20:49.508Z,430
2019-03-04T11:21:59.438Z,430
2019-03-04T11:23:09.361Z,460
2019-03-04T11:24:19.285Z,470
2019-03-04T11:25:29.206Z,475
2019-03-04T11:26:39.131Z,475
2019-03-04T11:27:49.128Z,490
2019-03-04T11:28:59.071Z,495
2019-03-04T11:30:09.004Z,505
2019-03-04T11:31:18.937Z,510
2019-03-04T11:32:28.858Z,515
2019-03-04T11:33:38.785Z,520
2019-03-04T11:34:49.934Z,535
2019-03-04T11:35:59.865Z,535
2019-03-04T11:37:09.795Z,535
2019-03-04T11:38:19.718Z,555
2019-03-04T11:39:29.767Z,560
2019-03-04T11:40:39.694Z,570
2019-03-04T11:41:49.627Z,575
2019-03-04T11:43:00.325Z,590
2019-03-04T11:44:10.251Z,590
2019-03-04T11:45:20.225Z,590
2019-03-04T11:46:30.211Z,605
2019-03-04T11:47:40.142Z,615
2019-03-04T11:48:50.981Z,615
2019-03-04T11:50:02.974Z,625
2019-03-04T11:51:13.005Z,620
2019-03-04T11:52:22.968Z,605
2019-03-04T11:53:32.903Z,600
2019-03-04T11:54:42.828Z,590
2019-03-04T11:55:53.514Z,595
2019-03-04T11:57:03.629Z,610
2019-03-04T11:58:13.550Z,600
2019-03-04T11:59:23.266Z,595
2019-03-04T12:00:33.199Z,590
2019-03-04T12:01:43.139Z,565
2019-03-04T12:02:53.063Z,550
2019-03-04T12:04:02.990Z,535
2019-03-04T12:05:12.915Z,510
2019-03-04T12:06:22.836Z,495
2019-03-04T12:07:32.756Z,485
2019-03-04T12:08:42.751Z,475
2019-03-04T12:09:52.737Z,455
2019-03-04T12:11:02.679Z,455
2019-03-04T12:12:12.603Z,445
2019-03-04T12:13:22.531Z,435
2019-03-04T12:14:32.558Z,435
2019-03-04T12:15:42.234Z,435
2019-03-04T12:16:52.198Z,435
2019-03-04T12:18:02.128Z,430
2019-03-04T12:19:12.064Z,425
2019-03-04T12:20:21.791Z,435
2019-03-04T12:21:31.510Z,425
2019-03-04T12:22:41.443Z,420
2019-03-04T12:23:51.374Z,425
2019-03-04T12:25:01.300Z,440
2019-03-04T12:26:11.279Z,470
2019-03-04T12:27:21.208Z,515
2019-03-04T12:28:31.133Z,560
2019-03-04T12:29:41.057Z,625
2019-03-04T12:30:50.988Z,685
2019-03-04T12:32:00.963Z,700
2019-03-04T12:33:10.918Z,735
2019-03-04T12:34:29.366Z,745
2019-03-04T12:35:39.289Z,745
2019-03-04T12:36:50.009Z,725
2019-03-04T12:37:59.992Z,730
2019-03-04T12:39:09.936Z,690
2019-03-04T12:40:19.864Z,660
2019-03-04T12:41:29.797Z,630
2019-03-04T12:42:39.725Z,595
2019-03-04T12:43:49.704Z,565
2019-03-04T12:44:59.633Z,545
2019-03-04T12:46:09.563Z,570
2019-03-04T12:47:21.286Z,605
2019-03-04T12:48:31.215Z,665
2019-03-04T12:49:41.283Z,655
2019-03-04T12:50:51.227Z,655
2019-03-04T12:52:00.905Z,675
2019-03-04T12:53:10.837Z,650
2019-03-04T12:54:20.511Z,560
2019-03-04T12:55:30.489Z,490
2019-03-04T12:56:40.439Z,445
2019-03-04T12:57:50.375Z,440
2019-03-04T12:59:00.300Z,450
2019-03-04T13:00:10.243Z,460
2019-03-04T13:01:20.325Z,480
2019-03-04T13:02:30.258Z,475
2019-03-04T13:03:40.195Z,475
2019-03-04T13:04:50.118Z,460
2019-03-04T13:05:59.790Z,450
2019-03-04T13:07:09.826Z,440
2019-03-04T13:08:19.750Z,420
2019-03-04T13:09:29.693Z,410
2019-03-04T13:10:41.120Z,400
2019-03-04T13:11:51.044Z,385
2019-03-04T13:13:01.122Z,370
2019-03-04T13:14:11.048Z,355
2019-03-04T13:15:20.969Z,355
2019-03-04T13:16:30.895Z,350
2019-03-04T13:17:40.816Z,345
2019-03-04T13:18:50.793Z,330
2019-03-04T13:20:00.719Z,335
2019-03-04T13:21:10.642Z,350
2019-03-04T13:22:20.569Z,350
2019-03-04T13:23:30.487Z,360
2019-03-04T13:24:40.460Z,355
2019-03-04T13:25:52.301Z,345
2019-03-04T13:27:02.106Z,340
2019-03-04T13:28:17.997Z,330
2019-03-04T13:29:27.938Z,320
2019-03-04T13:30:37.859Z,335
2019-03-04T13:31:47.787Z,330
2019-03-04T13:32:57.707Z,335
2019-03-04T13:34:07.629Z,340
2019-03-04T13:35:26.983Z,335
2019-03-04T13:36:36.960Z,335
2019-03-04T13:37:47.588Z,325
2019-03-04T13:38:57.520Z,320
2019-03-04T13:40:07.499Z,320
2019-03-04T13:41:17.439Z,320
2019-03-04T13:42:27.514Z,320
2019-03-04T13:43:37.437Z,325
2019-03-04T13:44:47.358Z,315
2019-03-04T13:45:57.284Z,320
2019-03-04T13:47:07.218Z,305
2019-03-04T13:48:17.187Z,300
2019-03-04T13:49:27.107Z,305
2019-03-04T13:50:37.036Z,305
2019-03-04T13:51:46.962Z,300
2019-03-04T13:52:56.895Z,300
2019-03-04T13:54:06.924Z,295
2019-03-04T13:55:16.854Z,290
2019-03-04T13:56:26.783Z,285
2019-03-04T13:57:36.701Z,290
2019-03-04T13:58:46.633Z,290
2019-03-04T13:59:56.607Z,300
2019-03-04T14:01:06.525Z,300
2019-03-04T14:02:16.455Z,300
2019-03-04T14:03:26.376Z,305
2019-03-04T14:04:36.305Z,325
2019-03-04T14:05:46.278Z,335
2019-03-04T14:06:58.364Z,340
2019-03-04T14:08:08.284Z,345
2019-03-04T14:09:18.204Z,355
2019-03-04T14:10:28.133Z,355
2019-03-04T14:11:38.163Z,350
2019-03-04T14:12:48.103Z,340
2019-03-04T14:13:57.772Z,330
2019-03-04T14:15:07.723Z,345
2019-03-04T14:16:17.657Z,335
2019-03-04T14:17:27.683Z,340
2019-03-04T14:18:37.619Z,340
2019-03-04T14:19:48.903Z,355
2019-03-04T14:20:58.958Z,340
2019-03-04T14:22:08.886Z,320
2019-03-04T14:23:18.867Z,300
2019-03-04T14:24:28.787Z,280
2019-03-04T14:25:38.711Z,260
2019-03-04T14:26:48.648Z,245
2019-03-04T14:27:58.321Z,240
2019-03-04T14:29:08.347Z,230
2019-03-04T14:30:18.274Z,220
2019-03-04T14:31:28.194Z,220
2019-03-04T14:32:38.115Z,230
2019-03-04T14:33:48.061Z,225
2019-03-04T14:34:58.101Z,215
2019-03-04T14:36:08.025Z,215
2019-03-04T14:37:17.958Z,200
2019-03-04T14:38:27.886Z,195
2019-03-04T14:39:37.807Z,195
2019-03-04T14:40:47.787Z,190
2019-03-04T14:41:57.714Z,185
2019-03-04T14:43:07.647Z,180
2019-03-04T14:44:17.574Z,170
2019-03-04T14:45:27.498Z,160
2019-03-04T14:46:37.472Z,160
2019-03-04T14:47:47.393Z,155
2019-03-04T14:48:57.336Z,155
2019-03-04T14:50:19.001Z,150
2019-03-04T14:51:28.951Z,145
2019-03-04T14:52:38.878Z,145
2019-03-04T14:53:48.797Z,145
2019-03-04T14:54:58.728Z,140
2019-03-04T14:56:10.917Z,135
2019-03-04T14:57:20.954Z,135
2019-03-04T14:58:30.891Z,130
2019-03-04T14:59:40.819Z,130
2019-03-04T15:00:50.747Z,125
2019-03-04T15:02:00.673Z,125
2019-03-04T15:03:19.410Z,120
2019-03-04T15:04:32.741Z,120
2019-03-04T15:05:42.670Z,115
2019-03-04T15:06:52.595Z,115
2019-03-04T15:08:03.032Z,120
2019-03-04T15:09:15.041Z,125
2019-03-04T15:10:25.053Z,125
2019-03-04T15:11:34.994Z,130
2019-03-04T15:12:44.913Z,130
2019-03-04T15:13:54.990Z,125
2019-03-04T15:15:04.979Z,125
2019-03-04T15:16:14.922Z,125
2019-03-04T15:17:24.838Z,125
2019-03-04T15:18:35.153Z,125
2019-03-04T15:19:45.138Z,120
2019-03-04T15:20:55.058Z,115
2019-03-04T15:22:04.983Z,115
2019-03-04T15:23:14.905Z,110
2019-03-04T15:24:24.830Z,105
2019-03-04T15:25:34.862Z,100
2019-03-04T15:26:53.365Z,100
2019-03-04T15:28:03.290Z,105
2019-03-04T15:29:14.463Z,100
2019-03-04T15:30:24.391Z,100
2019-03-04T15:31:35.876Z,95
2019-03-04T15:32:45.811Z,95
2019-03-04T15:33:55.729Z,95
2019-03-04T15:35:05.410Z,90
2019-03-04T15:36:15.088Z,90
2019-03-04T15:37:25.872Z,85
2019-03-04T15:38:35.551Z,85
2019-03-04T15:39:45.480Z,80
2019-03-04T15:40:55.402Z,80
2019-03-04T15:42:05.329Z,80
2019-03-04T15:43:15.259Z,80
2019-03-04T15:44:25.190Z,80
2019-03-04T15:45:36.129Z,80
2019-03-04T15:46:45.802Z,80
2019-03-04T15:47:55.754Z,80
2019-03-04T15:49:05.578Z,85
2019-03-04T15:50:15.506Z,85
2019-03-04T15:51:25.428Z,85
2019-03-04T15:52:35.346Z,85
2019-03-04T15:53:46.041Z,80
2019-03-04T15:54:56.069Z,80
2019-03-04T15:56:05.995Z,80
2019-03-04T15:57:16.265Z,80
2019-03-04T15:58:26.193Z,80
2019-03-04T15:59:36.123Z,80
2019-03-04T16:00:45.854Z,80
2019-03-04T16:01:55.773Z,75
2019-03-04T16:03:05.454Z,75
2019-03-04T16:04:15.385Z,75
2019-03-04T16:05:25.064Z,70
2019-03-04T16:06:35.094Z,70
2019-03-04T16:07:45.016Z,70
2019-03-04T16:08:54.938Z,70
2019-03-04T16:10:04.870Z,65
2019-03-04T16:11:14.798Z,70
2019-03-04T16:12:24.732Z,65
2019-03-04T16:13:34.653Z,65
2019-03-04T16:14:44.575Z,65
2019-03-04T16:15:54.508Z,65
2019-03-04T16:17:04.426Z,60
2019-03-04T16:18:14.355Z,60
2019-03-04T16:19:26.103Z,55
2019-03-04T16:20:36.032Z,55
2019-03-04T16:21:45.953Z,55
2019-03-04T16:22:55.875Z,55
2019-03-04T16:24:05.806Z,50
2019-03-04T16:25:15.735Z,50
2019-03-04T16:26:25.663Z,45
2019-03-04T16:27:35.580Z,45
2019-03-04T16:28:45.502Z,45
2019-03-04T16:29:55.415Z,40
2019-03-04T16:31:05.347Z,40
2019-03-04T16:32:15.267Z,35
2019-03-04T16:33:25.189Z,35
2019-03-04T16:34:35.119Z,30
2019-03-04T16:35:44.900Z,30